createdAt,value
2023-04-12T00:00:10.539Z,339.95
2023-04-12T00:02:39.468Z,332.10
2023-04-12T00:05:09.648Z,268.83
2023-04-12T00:07:39.211Z,303.58
2023-04-12T00:10:10.612Z,329.15
2023-04-12T00:12:40.773Z,273.05
2023-04-12T00:15:10.075Z,269.30
2023-04-12T00:17:38.428Z,348.75
2023-04-12T00:20:12.056Z,325.30
2023-04-12T00:22:41.304Z,309.20
2023-04-12T00:25:11.531Z,357.08
2023-04-12T00:27:40.614Z,508.58
2023-04-12T00:30:09.971Z,539.15
2023-04-12T00:32:38.359Z,513.65
2023-04-12T00:35:07.582Z,525.92
2023-04-12T00:37:38.433Z,513.95
2023-04-12T00:40:09.876Z,493.90
2023-04-12T00:42:40.242Z,501.27
2023-04-12T00:45:09.320Z,547.08
2023-04-12T00:47:38.614Z,535.50
2023-04-12T00:50:09.200Z,573.60
2023-04-12T00:52:37.701Z,531.88
2023-04-12T00:55:08.191Z,542.38
2023-04-12T00:57:37.666Z,567.63
2023-04-12T01:00:12.756Z,521.25
2023-04-12T01:02:47.498Z,539.17
2023-04-12T01:05:21.964Z,526.90
2023-04-12T01:07:56.748Z,540.45
2023-04-12T01:10:33.995Z,509.52
2023-04-12T01:13:10.893Z,520.00
2023-04-12T01:15:45.444Z,516.00
2023-04-12T01:20:48.334Z,526.90
2023-04-12T01:23:24.063Z,517.73
2023-04-12T01:26:13.483Z,553.75
2023-04-12T01:28:44.583Z,591.28
2023-04-12T01:31:14.669Z,545.20
2023-04-12T01:33:44.945Z,535.15
2023-04-12T01:36:14.739Z,536.28
2023-04-12T01:38:43.659Z,579.08
2023-04-12T01:41:12.243Z,546.83
2023-04-12T01:43:45.597Z,547.45
2023-04-12T01:46:17.136Z,549.95
2023-04-12T01:48:51.283Z,535.65
2023-04-12T01:51:26.065Z,550.60
2023-04-12T01:53:59.013Z,546.58
2023-04-12T01:56:30.751Z,557.33
2023-04-12T01:59:01.201Z,577.63
2023-04-12T02:01:31.604Z,569.53
2023-04-12T02:04:01.750Z,546.67
2023-04-12T02:06:31.543Z,564.28
2023-04-12T02:09:01.009Z,589.90
2023-04-12T02:11:29.558Z,584.05
2023-04-12T02:13:59.452Z,595.35
2023-04-12T02:16:29.127Z,572.63
2023-04-12T02:18:58.831Z,573.33
2023-04-12T02:21:27.820Z,589.25
2023-04-12T02:23:56.411Z,569.95
2023-04-12T02:26:24.933Z,570.97
2023-04-12T02:28:53.755Z,576.90
2023-04-12T02:31:23.611Z,583.03
2023-04-12T02:33:52.075Z,592.88
2023-04-12T02:36:20.922Z,593.08
2023-04-12T02:38:50.806Z,597.42
2023-04-12T02:41:19.530Z,589.95
2023-04-12T02:43:47.911Z,606.30
2023-04-12T02:46:21.744Z,608.67
2023-04-12T02:48:51.931Z,587.90
2023-04-12T02:51:20.392Z,580.95
2023-04-12T02:53:48.715Z,577.70
2023-04-12T02:56:19.289Z,604.35
2023-04-12T02:58:47.674Z,609.45
2023-04-12T03:01:17.092Z,566.58
2023-04-12T03:03:45.581Z,588.28
2023-04-12T03:06:15.279Z,644.53
2023-04-12T03:08:43.609Z,583.88
2023-04-12T03:11:11.910Z,615.03
2023-04-12T03:13:40.235Z,569.05
2023-04-12T03:16:23.496Z,611.17
2023-04-12T03:18:52.120Z,560.90
2023-04-12T03:21:21.807Z,644.10
2023-04-12T03:23:50.229Z,610.75
2023-04-12T03:26:20.390Z,574.70
2023-04-12T03:28:49.376Z,581.47
2023-04-12T03:31:20.976Z,592.28
2023-04-12T03:33:49.507Z,636.60
2023-04-12T03:36:17.876Z,600.97
2023-04-12T03:38:47.592Z,643.15
2023-04-12T03:41:16.427Z,595.92
2023-04-12T03:43:44.814Z,627.70
2023-04-12T03:46:15.504Z,585.58
2023-04-12T03:48:44.251Z,588.47
2023-04-12T03:51:12.980Z,672.42
2023-04-12T03:53:41.434Z,618.08
2023-04-12T03:56:12.487Z,614.45
2023-04-12T03:58:40.945Z,594.88
2023-04-12T04:01:10.092Z,577.83
2023-04-12T04:03:38.817Z,612.35
2023-04-12T04:06:07.844Z,583.53
2023-04-12T04:08:36.270Z,593.13
2023-04-12T04:11:05.428Z,596.40
2023-04-12T04:13:35.981Z,571.13
2023-04-12T04:16:06.796Z,556.75
2023-04-12T04:18:36.076Z,604.00
2023-04-12T04:21:04.724Z,574.88
2023-04-12T04:23:38.473Z,640.53
2023-04-12T04:26:10.436Z,584.45
2023-04-12T04:28:42.178Z,593.83
2023-04-12T04:31:10.713Z,616.30
2023-04-12T04:33:39.892Z,583.80
2023-04-12T04:36:09.399Z,588.55
2023-04-12T04:38:38.091Z,604.28
2023-04-12T04:41:07.177Z,594.90
2023-04-12T04:43:39.760Z,633.72
2023-04-12T04:46:10.699Z,611.22
2023-04-12T04:48:40.741Z,606.70
2023-04-12T04:51:09.366Z,597.50
2023-04-12T04:53:38.370Z,581.85
2023-04-12T04:56:07.891Z,567.42
2023-04-12T04:58:36.206Z,765.88
2023-04-12T05:01:05.274Z,592.53
2023-04-12T05:03:35.052Z,676.88
2023-04-12T05:06:03.509Z,606.28
2023-04-12T05:08:32.031Z,595.40
2023-04-12T05:11:00.469Z,586.67
2023-04-12T05:13:28.864Z,592.55
2023-04-12T05:15:57.234Z,605.15
2023-04-12T05:18:25.609Z,653.78
2023-04-12T05:20:55.287Z,614.33
2023-04-12T05:23:23.630Z,581.28
2023-04-12T05:25:52.192Z,601.15
2023-04-12T05:28:20.485Z,585.35
2023-04-12T05:30:48.852Z,617.72
2023-04-12T05:33:17.215Z,600.78
2023-04-12T05:35:45.685Z,641.30
2023-04-12T05:38:15.388Z,692.92
2023-04-12T05:40:44.852Z,713.25
2023-04-12T05:43:13.486Z,730.72
2023-04-12T05:45:42.189Z,607.58
2023-04-12T05:48:10.688Z,610.80
2023-04-12T05:50:39.251Z,606.97
2023-04-12T05:53:08.134Z,620.60
2023-04-12T05:55:38.278Z,593.78
2023-04-12T05:58:07.148Z,603.08
2023-04-12T06:00:36.411Z,714.03
2023-04-12T06:03:05.097Z,632.63
2023-04-12T06:05:34.774Z,614.70
2023-04-12T06:08:04.602Z,668.67
2023-04-12T06:10:33.396Z,624.83
2023-04-12T06:13:04.271Z,622.40
2023-04-12T06:15:33.523Z,618.92
2023-04-12T06:18:07.236Z,706.50
2023-04-12T06:20:35.787Z,630.00
2023-04-12T06:23:04.251Z,783.63
2023-04-12T06:25:32.600Z,626.03
2023-04-12T06:28:01.006Z,628.63
2023-04-12T06:30:30.767Z,633.65
2023-04-12T06:32:59.238Z,624.78
2023-04-12T06:35:27.599Z,625.83
2023-04-12T06:37:56.062Z,635.95
2023-04-12T06:40:24.407Z,681.47
2023-04-12T06:42:52.833Z,632.28
2023-04-12T06:45:21.244Z,613.15
2023-04-12T06:47:50.968Z,616.22
2023-04-12T06:50:19.512Z,688.30
2023-04-12T06:52:48.801Z,676.42
2023-04-12T06:55:17.468Z,700.85
2023-04-12T06:57:46.188Z,637.60
2023-04-12T07:00:15.507Z,676.63
2023-04-12T07:02:44.111Z,730.03
2023-04-12T07:05:14.559Z,700.33
2023-04-12T07:07:42.994Z,702.05
2023-04-12T07:10:11.606Z,594.15
2023-04-12T07:12:40.413Z,579.13
2023-04-12T07:15:09.609Z,674.33
2023-04-12T07:17:38.056Z,614.10
2023-04-12T07:20:07.149Z,557.17
2023-04-12T07:22:36.862Z,587.30
2023-04-12T07:25:10.113Z,617.75
2023-04-12T07:27:38.618Z,577.90
2023-04-12T07:30:08.020Z,636.15
2023-04-12T07:32:36.745Z,730.40
2023-04-12T07:35:05.463Z,620.28
2023-04-12T07:37:33.800Z,593.55
2023-04-12T07:40:03.476Z,646.72
2023-04-12T07:42:31.847Z,630.42
2023-04-12T07:45:00.543Z,592.13
2023-04-12T07:47:28.926Z,590.85
2023-04-12T07:49:58.835Z,648.97
2023-04-12T07:52:27.758Z,610.85
2023-04-12T07:54:56.086Z,616.97
2023-04-12T07:57:26.243Z,627.22
2023-04-12T07:59:54.767Z,636.30
2023-04-12T08:02:25.976Z,740.40
2023-04-12T08:04:54.883Z,650.58
2023-04-12T08:07:23.951Z,614.78
2023-04-12T08:09:52.393Z,640.08
2023-04-12T08:12:21.885Z,657.08
2023-04-12T08:14:51.558Z,675.53
2023-04-12T08:17:19.870Z,620.45
2023-04-12T08:19:48.291Z,659.13
2023-04-12T08:22:16.606Z,636.55
2023-04-12T08:24:45.029Z,642.60
2023-04-12T08:27:13.930Z,675.60
2023-04-12T08:29:42.242Z,658.42
2023-04-12T08:32:12.618Z,713.28
2023-04-12T08:34:41.038Z,747.38
2023-04-12T08:37:09.370Z,695.63
2023-04-12T08:39:37.746Z,691.35
2023-04-12T08:42:06.499Z,768.40
2023-04-12T08:44:38.857Z,721.90
2023-04-12T08:47:08.416Z,706.65
2023-04-12T08:49:38.441Z,695.28
2023-04-12T08:52:09.073Z,652.58
2023-04-12T08:54:38.353Z,694.97
2023-04-12T08:57:08.326Z,677.40
2023-04-12T08:59:39.721Z,659.28
2023-04-12T09:02:08.484Z,700.75
2023-04-12T09:04:49.517Z,807.20
2023-04-12T09:07:18.175Z,653.53
2023-04-12T09:09:47.337Z,674.00
2023-04-12T09:12:16.259Z,697.20
2023-04-12T09:14:44.901Z,688.00
2023-04-12T09:17:26.373Z,690.90
2023-04-12T09:19:56.357Z,688.22
2023-04-12T09:22:35.253Z,692.10
2023-04-12T09:25:04.058Z,709.63
2023-04-12T09:27:38.238Z,721.00
2023-04-12T09:30:11.204Z,684.70
2023-04-12T09:32:39.676Z,647.03
2023-04-12T09:35:10.479Z,610.20
2023-04-12T09:37:39.315Z,614.20
2023-04-12T09:40:09.610Z,625.85
2023-04-12T09:42:51.238Z,588.83
2023-04-12T09:45:25.532Z,697.88
2023-04-12T09:47:55.215Z,704.85
2023-04-12T09:50:27.331Z,641.42
2023-04-12T09:52:56.980Z,624.20
2023-04-12T09:55:26.741Z,607.75
2023-04-12T09:57:56.418Z,646.42
2023-04-12T10:00:26.814Z,740.17
2023-04-12T10:02:57.349Z,617.38
2023-04-12T10:05:28.311Z,631.05
2023-04-12T10:07:58.088Z,648.38
2023-04-12T10:10:26.618Z,686.67
2023-04-12T10:12:54.981Z,658.25
2023-04-12T10:15:23.435Z,665.58
2023-04-12T10:17:53.522Z,624.75
2023-04-12T10:20:24.821Z,614.25
2023-04-12T10:22:59.262Z,596.70
2023-04-12T10:25:30.795Z,657.25
2023-04-12T10:27:59.912Z,625.85
2023-04-12T10:30:29.618Z,675.85
2023-04-12T10:33:14.677Z,634.45
2023-04-12T10:35:57.498Z,622.95
2023-04-12T10:38:32.934Z,788.53
2023-04-12T10:41:29.000Z,691.40
2023-04-12T10:44:27.087Z,640.50
2023-04-12T10:46:55.563Z,591.25
2023-04-12T10:49:23.969Z,602.10
2023-04-12T10:52:15.815Z,659.83
2023-04-12T10:54:45.527Z,611.30
2023-04-12T10:57:43.415Z,652.35
2023-04-12T11:00:13.037Z,658.47
2023-04-12T11:03:12.526Z,667.13
2023-04-12T11:06:16.256Z,677.20
2023-04-12T11:08:51.401Z,690.78
2023-04-12T11:11:22.762Z,629.58
2023-04-12T11:13:57.171Z,671.10
2023-04-12T11:16:25.571Z,640.05
2023-04-12T11:18:56.050Z,827.53
2023-04-12T11:21:24.943Z,698.70
2023-04-12T11:23:54.522Z,675.88
2023-04-12T11:26:25.371Z,722.38
2023-04-12T11:28:55.854Z,658.22
2023-04-12T11:31:24.720Z,675.75
2023-04-12T11:33:53.125Z,653.65
2023-04-12T11:36:21.544Z,649.70
2023-04-12T11:38:50.292Z,822.60
2023-04-12T11:41:18.764Z,661.83
2023-04-12T11:43:49.442Z,659.35
2023-04-12T11:46:18.547Z,641.38
2023-04-12T11:48:47.703Z,661.08
2023-04-12T11:51:24.859Z,646.53
2023-04-12T11:53:58.187Z,638.50
2023-04-12T11:56:27.525Z,696.38
2023-04-12T11:58:57.644Z,667.33
2023-04-12T12:01:27.794Z,762.42
2023-04-12T12:03:56.966Z,655.25
2023-04-12T12:06:26.467Z,666.05
2023-04-12T12:08:56.174Z,630.85
2023-04-12T12:11:26.541Z,658.15
2023-04-12T12:13:57.898Z,659.70
2023-04-12T12:16:27.877Z,667.40
2023-04-12T12:18:56.855Z,665.30
2023-04-12T12:21:26.206Z,681.65
2023-04-12T12:23:56.562Z,696.00
2023-04-12T12:26:27.104Z,678.55
2023-04-12T12:29:00.305Z,693.17
2023-04-12T12:31:29.869Z,660.58
2023-04-12T12:33:59.233Z,672.83
2023-04-12T12:36:32.568Z,676.17
2023-04-12T12:39:07.402Z,656.90
2023-04-12T12:41:36.440Z,722.35
2023-04-12T12:44:07.770Z,703.25
2023-04-12T12:46:52.039Z,676.83
2023-04-12T12:49:23.792Z,712.00
2023-04-12T12:51:52.763Z,700.70
2023-04-12T12:54:36.640Z,701.05
2023-04-12T12:57:07.565Z,674.25
2023-04-12T12:59:37.656Z,782.92
2023-04-12T13:02:07.461Z,715.38
2023-04-12T13:04:36.382Z,700.80
2023-04-12T13:07:04.903Z,733.63
2023-04-12T13:09:33.689Z,757.60
2023-04-12T13:12:02.187Z,753.60
2023-04-12T13:14:30.721Z,748.03
2023-04-12T13:17:00.457Z,679.70
2023-04-12T13:19:29.147Z,701.53
2023-04-12T13:21:57.878Z,693.63
2023-04-12T13:24:26.368Z,700.90
2023-04-12T13:26:54.945Z,685.42
2023-04-12T13:29:23.303Z,733.03
2023-04-12T13:31:51.890Z,667.53
2023-04-12T13:34:21.921Z,714.47
2023-04-12T13:36:51.146Z,699.78
2023-04-12T13:39:19.553Z,807.22
2023-04-12T13:41:48.140Z,799.63
2023-04-12T13:44:16.506Z,675.45
2023-04-12T13:46:44.927Z,705.95
2023-04-12T13:49:13.605Z,782.38
2023-04-12T13:51:43.643Z,718.03
2023-04-12T13:54:11.962Z,700.17
2023-04-12T13:56:40.339Z,686.35
2023-04-12T13:59:08.960Z,692.45
2023-04-12T14:01:37.357Z,752.38
2023-04-12T14:04:06.488Z,658.90
2023-04-12T14:06:34.957Z,644.28
2023-04-12T14:09:06.508Z,812.20
2023-04-12T14:11:47.757Z,757.63
2023-04-12T14:14:16.900Z,676.97
2023-04-12T14:16:45.671Z,691.88
2023-04-12T14:19:14.097Z,811.72
2023-04-12T14:21:42.459Z,704.05
2023-04-12T14:24:12.508Z,692.17
2023-04-12T14:26:41.118Z,696.17
2023-04-12T14:29:09.721Z,849.17
2023-04-12T14:31:38.408Z,753.95
2023-04-12T14:34:08.628Z,839.58
2023-04-12T14:36:37.077Z,759.83
2023-04-12T14:39:08.514Z,714.17
2023-04-12T14:41:40.004Z,714.63
2023-04-12T14:44:08.489Z,678.72
2023-04-12T14:46:36.893Z,682.45
2023-04-12T14:49:05.280Z,711.10
2023-04-12T14:51:33.846Z,665.28
2023-04-12T14:54:02.519Z,696.03
2023-04-12T14:56:34.664Z,675.03
2023-04-12T14:59:08.987Z,659.00
2023-04-12T15:01:39.283Z,700.42
2023-04-12T15:04:08.213Z,641.72
2023-04-12T15:06:42.339Z,757.38
2023-04-12T15:09:11.036Z,624.75
2023-04-12T15:11:39.837Z,634.95
2023-04-12T15:14:09.576Z,689.95
2023-04-12T15:16:38.212Z,697.15
2023-04-12T15:19:12.053Z,835.22
2023-04-12T15:21:43.559Z,632.85
2023-04-12T15:24:11.964Z,738.63
2023-04-12T15:26:40.385Z,640.88
2023-04-12T15:29:10.313Z,770.10
2023-04-12T15:31:38.781Z,672.63
2023-04-12T15:34:07.356Z,636.65
2023-04-12T15:36:37.340Z,624.80
2023-04-12T15:39:06.676Z,603.72
2023-04-12T15:41:37.236Z,646.83
2023-04-12T15:44:05.813Z,663.78
2023-04-12T15:46:35.751Z,614.22
2023-04-12T15:49:04.406Z,617.20
2023-04-12T15:51:33.211Z,606.33
2023-04-12T15:54:01.705Z,623.58
2023-04-12T15:56:31.401Z,678.40
2023-04-12T15:59:01.089Z,641.95
2023-04-12T16:01:29.821Z,632.40
2023-04-12T16:04:00.020Z,776.47
2023-04-12T16:06:30.494Z,643.60
2023-04-12T16:08:59.160Z,785.05
2023-04-12T16:11:28.380Z,664.63
2023-04-12T16:13:56.762Z,708.55
2023-04-12T16:16:25.559Z,618.35
2023-04-12T16:18:55.764Z,780.05
2023-04-12T16:21:26.530Z,749.63
2023-04-12T16:23:55.479Z,699.30
2023-04-12T16:26:24.061Z,646.53
2023-04-12T16:28:53.224Z,616.90
2023-04-12T16:31:22.652Z,779.15
2023-04-12T16:33:51.856Z,627.85
2023-04-12T16:36:23.286Z,648.20
2023-04-12T16:38:54.885Z,645.53
2023-04-12T16:41:23.898Z,706.55
2023-04-12T16:43:53.884Z,655.63
2023-04-12T16:46:22.654Z,656.47
2023-04-12T16:48:51.065Z,640.85
2023-04-12T16:51:19.616Z,687.33
2023-04-12T16:53:48.335Z,737.38
2023-04-12T16:56:19.885Z,656.45
2023-04-12T16:58:48.910Z,683.05
2023-04-12T17:01:17.901Z,645.97
2023-04-12T17:03:46.821Z,646.60
2023-04-12T17:06:15.495Z,640.97
2023-04-12T17:08:44.905Z,655.15
2023-04-12T17:11:13.342Z,638.50
2023-04-12T17:13:44.651Z,621.75
2023-04-12T17:16:16.105Z,626.60
2023-04-12T17:18:45.775Z,606.85
2023-04-12T17:21:16.904Z,615.85
2023-04-12T17:23:45.421Z,604.13
2023-04-12T17:26:13.961Z,675.28
2023-04-12T17:28:43.679Z,628.33
2023-04-12T17:31:12.045Z,608.42
2023-04-12T17:33:40.497Z,587.17
2023-04-12T17:36:11.758Z,618.97
2023-04-12T17:38:40.827Z,640.47
2023-04-12T17:41:10.355Z,596.85
2023-04-12T17:43:38.763Z,603.75
2023-04-12T17:46:08.988Z,620.50
2023-04-12T17:48:37.566Z,600.63
2023-04-12T17:51:09.737Z,630.13
2023-04-12T17:53:38.173Z,596.85
2023-04-12T17:56:07.291Z,584.95
2023-04-12T17:58:35.796Z,636.95
2023-04-12T18:01:04.319Z,663.35
2023-04-12T18:03:34.390Z,581.58
2023-04-12T18:06:04.125Z,595.78
2023-04-12T18:08:32.493Z,626.85
2023-04-12T18:11:01.077Z,622.72
2023-04-12T18:13:29.391Z,616.03
2023-04-12T18:15:57.823Z,623.88
2023-04-12T18:18:26.277Z,635.58
2023-04-12T18:20:56.040Z,642.20
2023-04-12T18:23:24.676Z,600.90
2023-04-12T18:25:52.988Z,659.47
2023-04-12T18:28:21.302Z,577.83
2023-04-12T18:30:49.707Z,651.70
2023-04-12T18:33:18.436Z,595.70
2023-04-12T18:35:46.782Z,566.25
2023-04-12T18:38:17.306Z,734.72
2023-04-12T18:40:45.624Z,591.17
2023-04-12T18:43:13.997Z,629.58
2023-04-12T18:45:42.731Z,635.72
2023-04-12T18:48:11.294Z,668.65
2023-04-12T18:50:40.146Z,629.20
2023-04-12T18:53:08.714Z,638.15
2023-04-12T18:55:38.363Z,634.40
2023-04-12T18:58:06.992Z,645.97
2023-04-12T19:00:35.631Z,628.25
2023-04-12T19:03:04.196Z,632.78
2023-04-12T19:05:32.814Z,634.22
2023-04-12T19:08:02.106Z,636.30
2023-04-12T19:10:31.695Z,637.47
2023-04-12T19:13:05.803Z,645.08
2023-04-12T19:15:34.121Z,590.97
2023-04-12T19:18:02.540Z,626.03
2023-04-12T19:20:30.948Z,639.47
2023-04-12T19:22:59.277Z,623.53
2023-04-12T19:25:31.367Z,635.30
2023-04-12T19:28:01.761Z,632.65
2023-04-12T19:30:31.991Z,636.03
2023-04-12T19:33:00.505Z,691.15
2023-04-12T19:35:32.697Z,633.97
2023-04-12T19:38:01.088Z,606.22
2023-04-12T19:40:31.169Z,653.90
2023-04-12T19:43:01.126Z,652.97
2023-04-12T19:45:29.889Z,661.58
2023-04-12T19:47:58.262Z,590.45
2023-04-12T19:50:27.094Z,695.55
2023-04-12T19:52:55.409Z,647.17
2023-04-12T19:55:23.736Z,664.38
2023-04-12T19:57:52.169Z,622.13
2023-04-12T20:00:23.152Z,674.35
2023-04-12T20:02:52.684Z,627.65
2023-04-12T20:05:22.334Z,648.85
2023-04-12T20:07:52.576Z,560.97
2023-04-12T20:10:21.608Z,540.70
2023-04-12T20:12:50.057Z,620.63
2023-04-12T20:15:19.386Z,633.58
2023-04-12T20:17:51.838Z,591.45
2023-04-12T20:20:20.382Z,580.40
2023-04-12T20:22:51.829Z,569.67
2023-04-12T20:25:21.126Z,564.03
2023-04-12T20:27:57.976Z,655.97
2023-04-12T20:30:26.429Z,559.58
2023-04-12T20:32:56.232Z,624.53
2023-04-12T20:35:24.864Z,600.63
2023-04-12T20:37:53.396Z,561.03
2023-04-12T20:40:26.967Z,578.22
2023-04-12T20:42:55.506Z,581.40
2023-04-12T20:45:23.974Z,558.08
2023-04-12T20:47:52.570Z,583.88
2023-04-12T20:50:22.952Z,624.92
2023-04-12T20:52:52.693Z,605.10
2023-04-12T20:55:22.598Z,617.67
2023-04-12T20:57:55.589Z,606.60
2023-04-12T21:00:24.248Z,626.42
2023-04-12T21:02:52.778Z,628.78
2023-04-12T21:05:22.698Z,555.53
2023-04-12T21:07:51.214Z,537.78
2023-04-12T21:10:19.778Z,513.92
2023-04-12T21:12:48.149Z,455.02
2023-04-12T21:15:21.742Z,532.08
2023-04-12T21:17:50.714Z,498.38
2023-04-12T21:20:19.139Z,490.38
2023-04-12T21:22:51.687Z,563.42
2023-04-12T21:25:21.158Z,537.83
2023-04-12T21:27:50.220Z,589.78
2023-04-12T21:30:18.583Z,575.63
2023-04-12T21:32:47.107Z,592.13
2023-04-12T21:35:18.178Z,564.55
2023-04-12T21:37:47.920Z,596.38
2023-04-12T21:40:17.133Z,569.53
2023-04-12T21:42:45.830Z,584.03
2023-04-12T21:45:14.576Z,533.53
2023-04-12T21:47:44.079Z,605.88
2023-04-12T21:50:12.983Z,625.08
2023-04-12T21:52:43.015Z,571.00
2023-04-12T21:55:12.828Z,575.25
2023-04-12T21:57:41.347Z,605.22
2023-04-12T22:00:10.614Z,625.92
2023-04-12T22:02:39.244Z,615.85
2023-04-12T22:05:08.609Z,611.45
2023-04-12T22:07:40.835Z,591.80
2023-04-12T22:10:12.308Z,590.17
2023-04-12T22:12:42.202Z,594.65
2023-04-12T22:15:12.205Z,641.78
2023-04-12T22:17:41.034Z,637.05
2023-04-12T22:20:10.967Z,643.90
2023-04-12T22:22:39.794Z,645.08
2023-04-12T22:25:12.069Z,631.05
2023-04-12T22:27:42.154Z,648.50
2023-04-12T22:30:11.590Z,647.15
2023-04-12T22:32:40.160Z,626.65
2023-04-12T22:35:10.070Z,625.22
2023-04-12T22:37:41.233Z,653.08
2023-04-12T22:40:13.506Z,636.05
2023-04-12T22:42:47.372Z,626.17
2023-04-12T22:45:16.642Z,626.07
2023-04-12T22:47:45.376Z,628.53
2023-04-12T22:50:15.014Z,631.28
2023-04-12T22:52:43.526Z,624.33
2023-04-12T22:55:13.872Z,613.85
2023-04-12T22:57:43.597Z,689.78
2023-04-12T23:00:16.826Z,622.05
2023-04-12T23:02:47.643Z,629.53
2023-04-12T23:05:16.445Z,609.45
2023-04-12T23:07:45.009Z,626.78
2023-04-12T23:10:13.539Z,628.45
2023-04-12T23:12:43.406Z,610.42
2023-04-12T23:15:12.725Z,599.42
2023-04-12T23:17:41.134Z,618.00
2023-04-12T23:20:13.071Z,621.78
2023-04-12T23:22:56.505Z,633.03
2023-04-12T23:25:38.922Z,602.88
2023-04-12T23:28:12.489Z,613.75
2023-04-12T23:30:42.873Z,608.83
2023-04-12T23:33:12.057Z,630.58
2023-04-12T23:35:41.582Z,607.72
2023-04-12T23:38:15.476Z,622.50
2023-04-12T23:40:44.445Z,614.55
2023-04-12T23:43:14.178Z,608.17
2023-04-12T23:45:42.589Z,604.00
2023-04-12T23:48:11.030Z,617.10
2023-04-12T23:50:40.315Z,616.75
2023-04-12T23:53:08.715Z,614.05
2023-04-12T23:55:37.296Z,614.40
2023-04-12T23:58:05.770Z,623.25
